createdAt,value
2019-03-09T00:01:19.718Z,7.07
2019-03-09T00:03:48.220Z,6.00
2019-03-09T00:06:17.045Z,4.83
2019-03-09T00:09:05.690Z,5.50
2019-03-09T00:11:34.244Z,6.73
2019-03-09T00:14:08.711Z,4.43
2019-03-09T00:16:37.226Z,9.40
2019-03-09T00:19:05.751Z,7.83
2019-03-09T00:21:34.205Z,3.37
2019-03-09T00:24:13.483Z,7.00
2019-03-09T00:26:43.590Z,6.37
2019-03-09T00:29:13.739Z,6.97
2019-03-09T00:31:49.584Z,3.90
2019-03-09T00:34:18.024Z,10.77
2019-03-09T00:36:46.455Z,7.10
2019-03-09T00:39:15.079Z,4.60
2019-03-09T00:41:43.531Z,7.83
2019-03-09T00:44:11.958Z,3.43
2019-03-09T00:46:40.537Z,7.27
2019-03-09T00:49:11.111Z,4.63
2019-03-09T00:51:39.193Z,4.40
2019-03-09T00:54:07.719Z,8.30
2019-03-09T00:56:36.151Z,4.43
2019-03-09T00:59:04.676Z,2.73
2019-03-09T01:01:33.111Z,5.47
2019-03-09T01:04:20.902Z,3.27
2019-03-09T01:06:51.468Z,5.40
2019-03-09T01:09:39.323Z,7.30
2019-03-09T01:12:13.527Z,5.93
2019-03-09T01:14:42.040Z,4.50
2019-03-09T01:17:10.476Z,10.60
2019-03-09T01:19:38.923Z,5.97
2019-03-09T01:22:07.424Z,6.30
2019-03-09T01:24:35.878Z,8.70
2019-03-09T01:27:04.379Z,3.10
2019-03-09T01:29:32.832Z,3.30
2019-03-09T01:32:01.280Z,6.70
2019-03-09T01:34:29.733Z,2.67
2019-03-09T01:36:58.163Z,3.50
2019-03-09T01:39:26.654Z,3.63
2019-03-09T01:41:55.112Z,4.90
2019-03-09T01:44:23.553Z,3.13
2019-03-09T01:46:51.997Z,5.00
2019-03-09T01:49:20.445Z,2.53
2019-03-09T01:51:48.894Z,2.20
2019-03-09T01:54:17.336Z,4.40
2019-03-09T01:56:45.794Z,2.20
2019-03-09T01:59:14.227Z,4.70
2019-03-09T02:01:42.680Z,2.37
2019-03-09T02:04:11.113Z,3.60
2019-03-09T02:06:39.562Z,2.70
2019-03-09T02:09:08.227Z,6.27
2019-03-09T02:11:36.747Z,2.20
2019-03-09T02:14:05.253Z,2.40
2019-03-09T02:16:33.779Z,2.03
2019-03-09T02:19:02.200Z,2.00
2019-03-09T02:21:30.718Z,3.90
2019-03-09T02:23:59.151Z,1.90
2019-03-09T02:26:27.769Z,1.83
2019-03-09T02:28:56.212Z,2.90
2019-03-09T02:31:24.651Z,3.00
2019-03-09T02:33:53.091Z,2.80
2019-03-09T02:36:21.542Z,1.67
2019-03-09T02:38:54.561Z,6.80
2019-03-09T02:41:23.053Z,2.17
2019-03-09T02:43:51.492Z,2.13
2019-03-09T02:46:19.949Z,2.80
2019-03-09T02:48:48.375Z,1.40
2019-03-09T02:51:16.822Z,2.70
2019-03-09T02:53:45.339Z,2.10
2019-03-09T02:56:13.793Z,3.23
2019-03-09T02:58:42.234Z,1.93
2019-03-09T03:01:27.193Z,1.60
2019-03-09T03:04:14.976Z,3.07
2019-03-09T03:06:43.415Z,1.73
2019-03-09T03:09:11.926Z,2.10
2019-03-09T03:11:40.382Z,1.53
2019-03-09T03:14:08.891Z,1.30
2019-03-09T03:16:38.363Z,2.10
2019-03-09T03:19:07.899Z,2.20
2019-03-09T03:21:55.820Z,1.83
2019-03-09T03:24:24.249Z,1.10
2019-03-09T03:26:52.675Z,1.40
2019-03-09T03:29:21.124Z,1.73
2019-03-09T03:31:49.567Z,1.40
2019-03-09T03:34:18.022Z,1.17
2019-03-09T03:36:46.456Z,0.90
2019-03-09T03:39:14.900Z,1.70
2019-03-09T03:41:43.332Z,1.10
2019-03-09T03:44:11.863Z,1.33
2019-03-09T03:46:40.290Z,1.13
2019-03-09T03:49:08.756Z,1.40
2019-03-09T03:51:37.190Z,1.20
2019-03-09T03:54:05.700Z,1.67
2019-03-09T03:56:34.139Z,1.50
2019-03-09T03:59:02.661Z,1.00
2019-03-09T04:01:31.364Z,1.20
2019-03-09T04:03:59.892Z,1.00
2019-03-09T04:06:28.553Z,1.23
2019-03-09T04:08:57.141Z,0.90
2019-03-09T04:11:25.749Z,1.40
2019-03-09T04:13:54.534Z,1.30
2019-03-09T04:16:22.962Z,1.37
2019-03-09T04:18:51.404Z,1.17
2019-03-09T04:21:39.196Z,2.20
2019-03-09T04:24:07.725Z,1.80
2019-03-09T04:26:36.308Z,1.00
2019-03-09T04:29:24.164Z,1.13
2019-03-09T04:31:52.684Z,0.90
2019-03-09T04:34:21.129Z,1.20
2019-03-09T04:36:52.658Z,1.00
2019-03-09T04:39:24.799Z,1.27
2019-03-09T04:41:54.178Z,1.03
2019-03-09T04:44:22.610Z,0.80
2019-03-09T04:46:51.132Z,0.70
2019-03-09T04:49:19.569Z,0.90
2019-03-09T04:51:48.021Z,0.80
2019-03-09T04:54:16.451Z,0.70
2019-03-09T04:56:44.903Z,0.70
2019-03-09T04:59:32.758Z,0.77
2019-03-09T05:02:01.207Z,1.13
2019-03-09T05:04:41.618Z,0.80
2019-03-09T05:07:10.700Z,0.80
2019-03-09T05:10:01.739Z,1.63
2019-03-09T05:12:31.423Z,0.80
2019-03-09T05:14:59.862Z,1.10
2019-03-09T05:17:28.319Z,0.80
2019-03-09T05:19:56.742Z,0.90
2019-03-09T05:22:44.539Z,1.60
2019-03-09T05:25:13.135Z,1.40
2019-03-09T05:27:41.583Z,2.30
2019-03-09T05:30:13.045Z,0.93
2019-03-09T05:32:41.503Z,2.30
2019-03-09T05:35:10.084Z,1.50
2019-03-09T05:37:43.079Z,1.53
2019-03-09T05:40:08.890Z,1.33
2019-03-09T05:42:37.339Z,1.20
2019-03-09T05:45:07.622Z,1.93
2019-03-09T05:47:36.075Z,1.30
2019-03-09T05:50:23.856Z,1.10
2019-03-09T05:53:04.587Z,2.40
2019-03-09T05:55:33.018Z,2.30
2019-03-09T05:58:01.442Z,1.37
2019-03-09T06:00:29.955Z,1.57
2019-03-09T06:02:58.396Z,1.73
2019-03-09T06:05:29.585Z,1.53
2019-03-09T06:07:58.047Z,1.80
2019-03-09T06:10:26.559Z,1.70
2019-03-09T06:12:55.053Z,1.87
2019-03-09T06:15:23.512Z,1.70
2019-03-09T06:17:51.948Z,2.27
2019-03-09T06:20:20.395Z,2.67
2019-03-09T06:22:48.824Z,1.97
2019-03-09T06:25:17.277Z,1.97
2019-03-09T06:28:05.045Z,3.50
2019-03-09T06:30:33.500Z,2.50
2019-03-09T06:33:27.724Z,2.40
2019-03-09T06:36:08.013Z,3.13
2019-03-09T06:38:45.771Z,4.20
2019-03-09T06:41:17.311Z,4.70
2019-03-09T06:43:45.758Z,2.40
2019-03-09T06:46:14.310Z,2.67
2019-03-09T06:48:44.791Z,2.73
2019-03-09T06:51:32.583Z,2.60
2019-03-09T06:54:01.043Z,2.43
2019-03-09T06:56:29.506Z,2.23
2019-03-09T06:58:57.935Z,2.50
2019-03-09T07:01:26.438Z,2.73
2019-03-09T07:04:14.233Z,4.03
2019-03-09T07:06:42.678Z,2.90
2019-03-09T07:09:11.120Z,2.63
2019-03-09T07:11:39.555Z,5.47
2019-03-09T07:14:35.455Z,2.80
2019-03-09T07:17:03.904Z,3.13
2019-03-09T07:19:32.361Z,4.10
2019-03-09T07:22:00.791Z,3.00
2019-03-09T07:24:29.328Z,3.50
2019-03-09T07:26:57.763Z,3.77
2019-03-09T07:29:26.215Z,2.97
2019-03-09T07:31:54.650Z,3.83
2019-03-09T07:34:25.663Z,3.03
2019-03-09T07:36:54.235Z,2.40
2019-03-09T07:39:23.705Z,2.70
2019-03-09T07:42:11.583Z,5.70
2019-03-09T07:44:40.133Z,2.60
2019-03-09T07:47:08.775Z,2.33
2019-03-09T07:49:40.938Z,2.70
2019-03-09T07:52:32.176Z,2.93
2019-03-09T07:55:00.646Z,2.33
2019-03-09T07:57:29.088Z,5.70
2019-03-09T07:59:57.659Z,4.67
2019-03-09T08:02:26.256Z,4.90
2019-03-09T08:05:14.191Z,2.60
2019-03-09T08:07:43.785Z,3.53
2019-03-09T08:10:24.451Z,3.27
2019-03-09T08:12:53.044Z,2.63
2019-03-09T08:15:22.417Z,1.80
2019-03-09T08:17:50.939Z,5.43
2019-03-09T08:20:23.191Z,3.00
2019-03-09T08:22:51.650Z,1.93
2019-03-09T08:25:21.636Z,2.93
2019-03-09T08:28:09.493Z,3.10
2019-03-09T08:30:37.980Z,4.67
2019-03-09T08:33:06.438Z,3.80
2019-03-09T08:35:34.940Z,3.13
2019-03-09T08:38:03.606Z,3.33
2019-03-09T08:40:32.220Z,4.10
2019-03-09T08:43:00.750Z,3.40
2019-03-09T08:45:29.367Z,4.40
2019-03-09T08:48:17.287Z,5.67
2019-03-09T08:50:45.830Z,3.90
2019-03-09T08:53:14.356Z,4.63
2019-03-09T08:56:02.251Z,3.70
2019-03-09T08:58:30.800Z,2.27
2019-03-09T09:00:59.376Z,3.07
2019-03-09T09:03:47.278Z,3.53
2019-03-09T09:06:15.880Z,3.63
2019-03-09T09:08:44.367Z,3.97
2019-03-09T09:11:18.962Z,7.30
2019-03-09T09:13:47.408Z,4.40
2019-03-09T09:16:15.895Z,3.93
2019-03-09T09:18:44.498Z,4.90
2019-03-09T09:21:13.115Z,2.40
2019-03-09T09:23:41.592Z,7.50
2019-03-09T09:26:10.111Z,3.87
2019-03-09T09:28:38.580Z,3.77
2019-03-09T09:31:07.228Z,5.77
2019-03-09T09:33:35.698Z,22.37
2019-03-09T09:36:04.576Z,3.37
2019-03-09T09:38:33.108Z,11.30
2019-03-09T09:41:01.543Z,7.67
2019-03-09T09:43:30.063Z,7.10
2019-03-09T09:45:58.528Z,4.00
2019-03-09T09:48:27.006Z,4.40
2019-03-09T09:50:55.523Z,4.00
2019-03-09T09:53:24.049Z,4.17
2019-03-09T09:55:52.479Z,5.53
2019-03-09T09:58:21.003Z,7.83
2019-03-09T10:00:49.496Z,5.57
2019-03-09T10:03:17.954Z,3.13
2019-03-09T10:05:46.450Z,2.80
2019-03-09T10:08:14.917Z,5.40
2019-03-09T10:10:43.411Z,8.40
2019-03-09T10:13:11.920Z,9.40
2019-03-09T10:15:40.375Z,15.40
2019-03-09T10:18:08.823Z,25.37
2019-03-09T10:20:37.274Z,3.23
2019-03-09T10:23:06.761Z,18.93
2019-03-09T10:25:35.285Z,6.67
2019-03-09T10:28:03.864Z,20.20
2019-03-09T10:30:32.383Z,7.50
2019-03-09T10:33:00.808Z,6.03
2019-03-09T10:35:29.268Z,3.70
2019-03-09T10:37:57.716Z,4.70
2019-03-09T10:40:45.524Z,4.27
2019-03-09T10:43:14.027Z,3.13
2019-03-09T10:45:42.496Z,2.53
2019-03-09T10:48:10.941Z,1.37
2019-03-09T10:50:39.388Z,4.40
2019-03-09T10:53:07.826Z,6.57
2019-03-09T10:55:36.416Z,3.60
2019-03-09T10:58:05.140Z,3.33
2019-03-09T11:00:35.205Z,16.23
2019-03-09T11:03:03.964Z,8.83
2019-03-09T11:05:32.479Z,2.23
2019-03-09T11:08:00.950Z,6.33
2019-03-09T11:10:29.515Z,3.37
2019-03-09T11:12:59.044Z,25.50
2019-03-09T11:15:27.810Z,11.23
2019-03-09T11:17:56.287Z,5.50
2019-03-09T11:20:32.670Z,9.63
2019-03-09T11:23:01.135Z,7.17
2019-03-09T11:25:48.969Z,6.93
2019-03-09T11:28:17.443Z,8.50
2019-03-09T11:30:45.867Z,9.40
2019-03-09T11:33:14.336Z,10.00
2019-03-09T11:35:42.790Z,3.30
2019-03-09T11:38:11.361Z,2.87
2019-03-09T11:40:40.790Z,2.20
2019-03-09T11:43:09.706Z,1.13
2019-03-09T11:45:38.235Z,4.30
2019-03-09T11:48:06.797Z,1.30
2019-03-09T11:50:35.322Z,3.77
2019-03-09T11:53:03.749Z,5.00
2019-03-09T11:55:32.203Z,1.93
2019-03-09T11:58:00.749Z,1.53
2019-03-09T12:00:30.928Z,1.17
2019-03-09T12:02:59.472Z,2.70
2019-03-09T12:05:27.912Z,3.20
2019-03-09T12:07:56.451Z,4.27
2019-03-09T12:10:24.899Z,3.07
2019-03-09T12:12:53.494Z,3.63
2019-03-09T12:15:22.003Z,7.13
2019-03-09T12:17:50.982Z,3.23
2019-03-09T12:20:21.288Z,2.13
2019-03-09T12:23:10.622Z,3.10
2019-03-09T12:25:39.135Z,1.40
2019-03-09T12:28:07.623Z,2.27
2019-03-09T12:30:36.132Z,1.53
2019-03-09T12:33:04.594Z,3.00
2019-03-09T12:35:33.137Z,1.20
2019-03-09T12:38:01.733Z,1.20
2019-03-09T12:40:30.319Z,2.37
2019-03-09T12:42:58.813Z,2.83
2019-03-09T12:45:27.388Z,4.50
2019-03-09T12:47:55.877Z,2.80
2019-03-09T12:50:32.191Z,2.47
2019-03-09T12:53:01.813Z,3.57
2019-03-09T12:55:30.256Z,1.30
2019-03-09T12:57:58.703Z,2.60
2019-03-09T13:00:27.151Z,2.10
2019-03-09T13:02:55.641Z,1.77
2019-03-09T13:05:24.355Z,2.07
2019-03-09T13:07:52.899Z,2.37
2019-03-09T13:10:21.676Z,1.30
2019-03-09T13:12:50.122Z,1.90
2019-03-09T13:15:18.680Z,2.00
2019-03-09T13:17:47.128Z,3.00
2019-03-09T13:20:16.631Z,1.60
2019-03-09T13:22:45.133Z,5.50
2019-03-09T13:25:14.507Z,2.00
2019-03-09T13:27:46.157Z,2.87
2019-03-09T13:30:17.217Z,6.03
2019-03-09T13:32:45.653Z,3.70
2019-03-09T13:35:14.278Z,5.23
2019-03-09T13:37:42.712Z,5.10
2019-03-09T13:40:12.724Z,8.43
2019-03-09T13:42:41.173Z,6.30
2019-03-09T13:45:14.521Z,8.67
2019-03-09T13:47:43.116Z,8.37
2019-03-09T13:50:15.270Z,14.30
2019-03-09T13:52:43.896Z,9.60
2019-03-09T13:55:13.274Z,9.83
2019-03-09T13:57:41.864Z,5.97
2019-03-09T14:00:13.117Z,14.87
2019-03-09T14:02:41.567Z,8.60
2019-03-09T14:05:10.609Z,12.83
2019-03-09T14:07:39.068Z,19.70
2019-03-09T14:10:10.715Z,13.03
2019-03-09T14:12:39.194Z,7.50
2019-03-09T14:15:17.476Z,9.63
2019-03-09T14:17:46.358Z,22.00
2019-03-09T14:20:16.176Z,19.63
2019-03-09T14:23:04.069Z,14.67
2019-03-09T14:25:32.512Z,17.80
2019-03-09T14:28:06.727Z,10.90
2019-03-09T14:30:35.254Z,11.77
2019-03-09T14:33:03.781Z,15.07
2019-03-09T14:35:32.241Z,29.07
2019-03-09T14:38:00.679Z,23.67
2019-03-09T14:40:29.148Z,51.47
2019-03-09T14:42:57.633Z,21.20
2019-03-09T14:45:26.166Z,25.40
2019-03-09T14:47:55.499Z,13.43
2019-03-09T14:50:24.574Z,26.40
2019-03-09T14:52:53.063Z,13.80
2019-03-09T14:55:21.529Z,21.90
2019-03-09T14:57:49.972Z,18.50
2019-03-09T15:00:23.793Z,30.40
2019-03-09T15:02:52.250Z,21.80
2019-03-09T15:05:40.067Z,16.43
2019-03-09T15:08:08.639Z,14.27
2019-03-09T15:10:37.167Z,19.63
2019-03-09T15:13:05.622Z,16.80
2019-03-09T15:15:34.135Z,11.83
2019-03-09T15:18:02.605Z,15.73
2019-03-09T15:20:31.198Z,20.60
2019-03-09T15:22:59.655Z,12.80
2019-03-09T15:25:28.091Z,15.60
2019-03-09T15:27:56.547Z,15.93
2019-03-09T15:30:26.013Z,17.13
2019-03-09T15:32:54.480Z,18.30
2019-03-09T15:35:22.947Z,19.03
2019-03-09T15:37:51.408Z,23.40
2019-03-09T15:40:20.754Z,17.33
2019-03-09T15:42:49.347Z,11.90
2019-03-09T15:45:25.760Z,14.47
2019-03-09T15:47:54.223Z,17.13
2019-03-09T15:50:23.127Z,12.63
2019-03-09T15:53:10.925Z,23.83
2019-03-09T15:55:39.505Z,17.90
2019-03-09T15:58:08.139Z,15.23
2019-03-09T16:00:36.779Z,13.83
2019-03-09T16:03:05.411Z,11.20
2019-03-09T16:05:33.959Z,12.53
2019-03-09T16:08:02.467Z,11.57
2019-03-09T16:10:30.999Z,11.40
2019-03-09T16:12:59.463Z,18.23
2019-03-09T16:15:47.268Z,14.53
2019-03-09T16:18:15.807Z,8.70
2019-03-09T16:20:44.312Z,10.83
2019-03-09T16:23:12.936Z,17.57
2019-03-09T16:25:41.475Z,11.20
2019-03-09T16:28:09.921Z,9.03
2019-03-09T16:30:39.516Z,9.63
2019-03-09T16:33:07.959Z,12.23
2019-03-09T16:35:36.422Z,12.27
2019-03-09T16:38:05.127Z,13.17
2019-03-09T16:40:40.365Z,19.73
2019-03-09T16:43:04.895Z,26.87
2019-03-09T16:45:36.547Z,15.37
2019-03-09T16:48:05.462Z,17.60
2019-03-09T16:50:34.256Z,19.00
2019-03-09T16:53:02.842Z,24.53
2019-03-09T16:55:31.459Z,9.77
2019-03-09T16:58:00.033Z,19.57
2019-03-09T17:00:28.600Z,15.20
2019-03-09T17:02:57.046Z,9.90
2019-03-09T17:05:25.665Z,12.50
2019-03-09T17:07:54.179Z,8.43
2019-03-09T17:10:22.708Z,11.40
2019-03-09T17:12:51.165Z,12.90
2019-03-09T17:15:21.927Z,6.60
2019-03-09T17:17:50.461Z,10.73
2019-03-09T17:20:19.045Z,5.80
2019-03-09T17:22:47.662Z,9.00
2019-03-09T17:25:16.439Z,5.60
2019-03-09T17:27:44.976Z,5.97
2019-03-09T17:30:18.681Z,8.00
2019-03-09T17:32:47.419Z,13.70
2019-03-09T17:35:16.197Z,11.67
2019-03-09T17:37:44.843Z,42.27
2019-03-09T17:40:15.139Z,10.10
2019-03-09T17:42:43.711Z,12.23
2019-03-09T17:45:18.300Z,11.90
2019-03-09T17:47:46.750Z,9.27
2019-03-09T17:50:15.447Z,9.43
2019-03-09T17:52:44.045Z,7.20
2019-03-09T17:55:13.092Z,8.87
2019-03-09T17:57:41.791Z,16.03
2019-03-09T18:00:19.126Z,12.57
2019-03-09T18:02:47.645Z,14.70
2019-03-09T18:05:16.091Z,32.23
2019-03-09T18:07:44.544Z,13.77
2019-03-09T18:10:25.460Z,8.37
2019-03-09T18:12:55.035Z,8.73
2019-03-09T18:15:23.561Z,19.20
2019-03-09T18:17:52.088Z,10.37
2019-03-09T18:20:20.557Z,8.17
2019-03-09T18:23:01.363Z,11.07
2019-03-09T18:25:29.931Z,12.73
2019-03-09T18:27:58.940Z,8.70
2019-03-09T18:30:27.407Z,10.67
2019-03-09T18:32:55.842Z,12.23
2019-03-09T18:35:24.369Z,8.33
2019-03-09T18:37:52.815Z,21.23
2019-03-09T18:40:21.625Z,8.03
2019-03-09T18:42:50.691Z,16.43
2019-03-09T18:45:20.888Z,5.10
2019-03-09T18:47:50.331Z,11.77
2019-03-09T18:50:18.998Z,8.33
2019-03-09T18:52:47.798Z,11.23
2019-03-09T18:55:16.476Z,11.87
2019-03-09T18:57:44.939Z,7.10
2019-03-09T19:00:18.260Z,7.57
2019-03-09T19:02:46.715Z,12.23
2019-03-09T19:05:16.389Z,15.10
2019-03-09T19:07:45.288Z,8.10
2019-03-09T19:10:15.872Z,8.27
2019-03-09T19:12:48.129Z,10.27
2019-03-09T19:15:17.971Z,12.17
2019-03-09T19:17:47.048Z,6.13
2019-03-09T19:20:20.651Z,6.87
2019-03-09T19:23:08.545Z,12.53
2019-03-09T19:25:37.647Z,8.20
2019-03-09T19:28:06.267Z,9.33
2019-03-09T19:30:34.744Z,8.20
2019-03-09T19:33:06.163Z,8.97
2019-03-09T19:35:34.697Z,7.63
2019-03-09T19:38:03.154Z,7.57
2019-03-09T19:40:31.655Z,7.03
2019-03-09T19:43:19.725Z,8.30
2019-03-09T19:45:48.648Z,11.80
2019-03-09T19:48:17.128Z,6.77
2019-03-09T19:50:45.592Z,12.83
2019-03-09T19:53:14.035Z,13.30
2019-03-09T19:55:42.724Z,10.00
2019-03-09T19:58:11.180Z,5.70
2019-03-09T20:00:40.292Z,4.20
2019-03-09T20:03:08.828Z,7.17
2019-03-09T20:05:37.375Z,9.43
2019-03-09T20:08:06.002Z,3.97
2019-03-09T20:10:34.465Z,2.90
2019-03-09T20:13:03.051Z,8.90
2019-03-09T20:15:31.496Z,5.17
2019-03-09T20:18:00.824Z,6.37
2019-03-09T20:20:30.355Z,5.23
2019-03-09T20:22:59.271Z,11.60
2019-03-09T20:25:28.547Z,5.57
2019-03-09T20:27:57.203Z,25.87
2019-03-09T20:30:25.824Z,8.70
2019-03-09T20:32:54.276Z,19.80
2019-03-09T20:35:22.741Z,10.20
2019-03-09T20:37:51.187Z,20.63
2019-03-09T20:40:19.705Z,17.70
2019-03-09T20:42:48.152Z,4.40
2019-03-09T20:45:24.087Z,9.67
2019-03-09T20:47:52.578Z,15.80
2019-03-09T20:50:22.430Z,5.27
2019-03-09T20:52:50.882Z,5.23
2019-03-09T20:55:19.451Z,4.10
2019-03-09T20:57:48.060Z,6.80
2019-03-09T21:00:17.759Z,5.50
2019-03-09T21:02:46.258Z,4.70
2019-03-09T21:05:15.116Z,5.37
2019-03-09T21:07:49.331Z,3.83
2019-03-09T21:10:19.114Z,5.50
2019-03-09T21:13:08.526Z,4.53
2019-03-09T21:15:37.005Z,7.47
2019-03-09T21:18:06.559Z,12.70
2019-03-09T21:20:35.062Z,9.00
2019-03-09T21:23:03.515Z,8.13
2019-03-09T21:25:32.119Z,60.93
2019-03-09T21:28:00.559Z,26.60
2019-03-09T21:30:31.190Z,15.43
2019-03-09T21:32:59.643Z,4.17
2019-03-09T21:35:28.199Z,10.80
2019-03-09T21:37:57.675Z,7.77
2019-03-09T21:40:26.143Z,14.27
2019-03-09T21:42:54.627Z,24.23
2019-03-09T21:45:23.312Z,11.73
2019-03-09T21:47:51.861Z,10.40
2019-03-09T21:50:20.588Z,8.00
2019-03-09T21:52:49.043Z,9.00
2019-03-09T21:55:18.027Z,23.47
2019-03-09T21:57:47.899Z,17.90
2019-03-09T22:00:20.840Z,20.77
2019-03-09T22:02:50.558Z,16.87
2019-03-09T22:05:19.601Z,15.20
2019-03-09T22:07:48.875Z,28.83
2019-03-09T22:10:17.477Z,13.13
2019-03-09T22:12:45.945Z,15.57
2019-03-09T22:15:15.534Z,24.80
2019-03-09T22:17:44.027Z,27.93
2019-03-09T22:20:16.214Z,16.47
2019-03-09T22:22:44.991Z,24.90
2019-03-09T22:25:14.963Z,28.53
2019-03-09T22:27:43.416Z,20.03
2019-03-09T22:30:14.703Z,19.63
2019-03-09T22:32:43.131Z,27.20
2019-03-09T22:35:12.947Z,35.97
2019-03-09T22:37:41.641Z,20.07
2019-03-09T22:40:11.931Z,19.20
2019-03-09T22:42:59.699Z,30.77
2019-03-09T22:45:28.328Z,25.60
2019-03-09T22:47:56.754Z,25.90
2019-03-09T22:50:28.432Z,30.53
2019-03-09T22:52:56.932Z,23.13
2019-03-09T22:55:25.555Z,22.90
2019-03-09T22:57:53.992Z,28.17
2019-03-09T23:00:26.756Z,21.73
2019-03-09T23:02:55.338Z,28.43
2019-03-09T23:05:23.876Z,40.40
2019-03-09T23:08:11.652Z,37.43
2019-03-09T23:10:40.195Z,33.07
2019-03-09T23:13:27.976Z,33.00
2019-03-09T23:15:56.432Z,40.50
2019-03-09T23:18:24.880Z,21.83
2019-03-09T23:20:54.315Z,24.27
2019-03-09T23:23:22.738Z,27.03
2019-03-09T23:25:51.219Z,29.10
2019-03-09T23:28:19.660Z,27.00
2019-03-09T23:30:48.113Z,26.23
2019-03-09T23:33:16.562Z,19.40
2019-03-09T23:35:45.102Z,24.00
2019-03-09T23:38:13.811Z,23.77
2019-03-09T23:40:42.350Z,26.97
2019-03-09T23:43:10.780Z,26.50
2019-03-09T23:45:39.241Z,32.23
2019-03-09T23:48:07.680Z,23.90
2019-03-09T23:50:36.199Z,25.33
2019-03-09T23:53:04.788Z,32.27
2019-03-09T23:55:33.299Z,21.13
2019-03-09T23:58:01.883Z,25.37
